createdAt,value
2017-09-06T00:00:17.767Z,100161.58
2017-09-06T00:02:46.820Z,100165.52
2017-09-06T00:05:15.876Z,100154.09
2017-09-06T00:07:45.503Z,100155.08
2017-09-06T00:10:14.612Z,100151.34
2017-09-06T00:12:45.407Z,100160.59
2017-09-06T00:15:14.489Z,100149.77
2017-09-06T00:17:43.549Z,100152.13
2017-09-06T00:20:12.588Z,100150.16
2017-09-06T00:22:41.644Z,100146.22
2017-09-06T00:25:10.693Z,100143.06
2017-09-06T00:27:39.749Z,100143.46
2017-09-06T00:30:08.804Z,100141.88
2017-09-06T00:32:37.892Z,100133.58
2017-09-06T00:35:06.937Z,100134.96
2017-09-06T00:37:36.040Z,100131.80
2017-09-06T00:40:05.072Z,100128.65
2017-09-06T00:42:34.132Z,100129.02
2017-09-06T00:45:03.265Z,100132.97
2017-09-06T00:47:32.323Z,100126.07
2017-09-06T00:50:01.359Z,100121.73
2017-09-06T00:52:30.420Z,100125.28
2017-09-06T00:54:59.468Z,100125.89
2017-09-06T00:57:28.540Z,100125.28
2017-09-06T00:59:57.627Z,100119.75
2017-09-06T01:02:26.681Z,100115.41
2017-09-06T01:04:55.744Z,100115.21
2017-09-06T01:07:24.804Z,100122.31
2017-09-06T01:09:53.842Z,100118.78
2017-09-06T01:12:22.892Z,100107.16
2017-09-06T01:14:51.980Z,100104.98
2017-09-06T01:17:21.057Z,100105.17
2017-09-06T01:19:50.114Z,100107.16
2017-09-06T01:22:19.183Z,100100.63
2017-09-06T01:24:48.231Z,100106.72
2017-09-06T01:27:17.288Z,100096.65
2017-09-06T01:29:46.341Z,100098.22
2017-09-06T01:32:15.410Z,100097.27
2017-09-06T01:34:44.499Z,100096.66
2017-09-06T01:37:13.532Z,100104.75
2017-09-06T01:39:42.620Z,100109.70
2017-09-06T01:42:11.670Z,100101.42
2017-09-06T01:44:40.721Z,100102.60
2017-09-06T01:47:09.777Z,100097.87
2017-09-06T01:49:38.855Z,100094.91
2017-09-06T01:52:07.903Z,100095.11
2017-09-06T01:54:37.016Z,100095.69
2017-09-06T01:57:06.100Z,100093.69
2017-09-06T01:59:35.150Z,100092.91
2017-09-06T02:02:04.257Z,100090.12
2017-09-06T02:04:33.319Z,100088.15
2017-09-06T02:07:02.390Z,100080.08
2017-09-06T02:09:31.428Z,100083.81
2017-09-06T02:12:00.472Z,100080.66
2017-09-06T02:14:29.536Z,100075.92
2017-09-06T02:16:58.592Z,100078.69
2017-09-06T02:19:27.635Z,100079.66
2017-09-06T02:21:56.680Z,100066.39
2017-09-06T02:24:25.747Z,100068.03
2017-09-06T02:26:54.815Z,100060.54
2017-09-06T02:29:23.890Z,100059.89
2017-09-06T02:31:52.964Z,100058.94
2017-09-06T02:34:22.047Z,100051.03
2017-09-06T02:36:51.129Z,100055.34
2017-09-06T02:39:20.189Z,100044.48
2017-09-06T02:41:49.252Z,100042.12
2017-09-06T02:44:18.685Z,100041.11
2017-09-06T02:46:47.728Z,100037.17
2017-09-06T02:49:16.751Z,100026.93
2017-09-06T02:51:45.836Z,100027.88
2017-09-06T02:54:14.875Z,100029.06
2017-09-06T02:56:43.939Z,100026.31
2017-09-06T02:59:13.033Z,100025.12
2017-09-06T03:01:42.103Z,100022.77
2017-09-06T03:04:11.159Z,100028.08
2017-09-06T03:06:40.239Z,100021.58
2017-09-06T03:09:09.267Z,100019.41
2017-09-06T03:11:38.353Z,100019.61
2017-09-06T03:14:07.437Z,100015.67
2017-09-06T03:16:36.498Z,100011.94
2017-09-06T03:19:05.769Z,100010.75
2017-09-06T03:21:35.738Z,100003.86
2017-09-06T03:24:04.830Z,99993.98
2017-09-06T03:26:33.849Z,99996.54
2017-09-06T03:29:02.931Z,100003.23
2017-09-06T03:31:31.960Z,99992.41
2017-09-06T03:34:01.268Z,99997.70
2017-09-06T03:36:30.330Z,99994.94
2017-09-06T03:38:59.371Z,99996.91
2017-09-06T03:41:28.426Z,99991.00
2017-09-06T03:43:57.477Z,99991.17
2017-09-06T03:46:26.521Z,99992.95
2017-09-06T03:48:55.739Z,99988.22
2017-09-06T03:51:24.811Z,99987.44
2017-09-06T03:53:53.897Z,99986.87
2017-09-06T03:56:22.980Z,99981.55
2017-09-06T03:58:52.063Z,99978.40
2017-09-06T04:01:21.115Z,99979.38
2017-09-06T04:03:50.540Z,99974.46
2017-09-06T04:06:19.604Z,99966.38
2017-09-06T04:08:48.667Z,99966.97
2017-09-06T04:11:17.737Z,99965.80
2017-09-06T04:13:46.807Z,99962.86
2017-09-06T04:16:15.873Z,99959.70
2017-09-06T04:18:44.935Z,99957.15
2017-09-06T04:21:13.979Z,99952.63
2017-09-06T04:23:43.028Z,99950.05
2017-09-06T04:26:12.085Z,99951.24
2017-09-06T04:28:41.169Z,99950.06
2017-09-06T04:31:10.237Z,99956.76
2017-09-06T04:33:40.053Z,99946.71
2017-09-06T04:36:09.228Z,99946.88
2017-09-06T04:38:38.280Z,99954.37
2017-09-06T04:41:07.355Z,99961.05
2017-09-06T04:43:36.393Z,99946.88
2017-09-06T04:46:05.691Z,99941.33
2017-09-06T04:48:34.744Z,99944.88
2017-09-06T04:51:03.797Z,99944.26
2017-09-06T04:53:32.843Z,99946.63
2017-09-06T04:56:01.909Z,99941.73
2017-09-06T04:58:30.960Z,99932.27
2017-09-06T05:01:00.005Z,99939.53
2017-09-06T05:03:29.102Z,99932.84
2017-09-06T05:05:58.383Z,99935.01
2017-09-06T05:08:27.450Z,99935.59
2017-09-06T05:10:56.521Z,99933.02
2017-09-06T05:13:25.571Z,99934.39
2017-09-06T05:15:54.640Z,99935.80
2017-09-06T05:18:23.717Z,99935.57
2017-09-06T05:20:52.799Z,99935.38
2017-09-06T05:23:21.859Z,99938.55
2017-09-06T05:25:50.887Z,99951.72
2017-09-06T05:28:19.941Z,99953.06
2017-09-06T05:30:49.013Z,99955.39
2017-09-06T05:33:18.064Z,99950.41
2017-09-06T05:35:48.172Z,99947.06
2017-09-06T05:38:17.236Z,99944.44
2017-09-06T05:40:46.307Z,99947.16
2017-09-06T05:43:15.322Z,99945.14
2017-09-06T05:45:44.372Z,99950.80
2017-09-06T05:48:14.212Z,99947.85
2017-09-06T05:50:43.273Z,99954.11
2017-09-06T05:53:12.368Z,99950.08
2017-09-06T05:55:41.628Z,99959.86
2017-09-06T05:58:10.716Z,99955.91
2017-09-06T06:00:39.813Z,99967.86
2017-09-06T06:03:08.917Z,99964.08
2017-09-06T06:05:37.975Z,99966.82
2017-09-06T06:08:07.054Z,99958.52
2017-09-06T06:10:36.096Z,99957.58
2017-09-06T06:13:05.201Z,99961.90
2017-09-06T06:15:34.287Z,99960.28
2017-09-06T06:18:03.678Z,99962.64
2017-09-06T06:20:32.827Z,99963.92
2017-09-06T06:23:01.908Z,99960.67
2017-09-06T06:25:31.013Z,99962.55
2017-09-06T06:28:00.045Z,99954.09
2017-09-06T06:30:29.096Z,99961.36
2017-09-06T06:32:58.143Z,99968.83
2017-09-06T06:35:27.211Z,99960.97
2017-09-06T06:37:56.275Z,99971.98
2017-09-06T06:40:25.307Z,99974.88
2017-09-06T06:42:56.228Z,99976.57
2017-09-06T06:45:25.231Z,99978.53
2017-09-06T06:47:54.298Z,99968.84
2017-09-06T06:50:24.421Z,99981.20
2017-09-06T06:52:53.487Z,99968.64
2017-09-06T06:55:23.325Z,99972.23
2017-09-06T06:57:52.361Z,99979.13
2017-09-06T07:00:21.442Z,99969.70
2017-09-06T07:02:50.878Z,99974.65
2017-09-06T07:05:19.936Z,99975.64
2017-09-06T07:07:49.007Z,99970.73
2017-09-06T07:10:19.146Z,99972.71
2017-09-06T07:12:48.246Z,99966.02
2017-09-06T07:15:17.560Z,99961.55
2017-09-06T07:17:46.665Z,99962.94
2017-09-06T07:20:15.841Z,99960.63
2017-09-06T07:22:44.886Z,99962.63
2017-09-06T07:25:14.295Z,99962.05
2017-09-06T07:27:43.411Z,99958.56
2017-09-06T07:30:12.688Z,99958.62
2017-09-06T07:32:42.504Z,99960.06
2017-09-06T07:35:11.585Z,99964.03
2017-09-06T07:37:41.433Z,99957.94
2017-09-06T07:40:10.541Z,99958.72
2017-09-06T07:42:39.682Z,99965.22
2017-09-06T07:45:08.737Z,99972.88
2017-09-06T07:47:37.847Z,99981.28
2017-09-06T07:50:06.888Z,99977.28
2017-09-06T07:52:35.976Z,99980.52
2017-09-06T07:55:05.014Z,99985.33
2017-09-06T07:57:34.094Z,99977.75
2017-09-06T08:00:03.131Z,99998.09
2017-09-06T08:02:32.196Z,99992.87
2017-09-06T08:05:01.257Z,100003.91
2017-09-06T08:07:30.325Z,100004.48
2017-09-06T08:09:59.728Z,100021.17
2017-09-06T08:12:28.781Z,100018.64
2017-09-06T08:14:57.833Z,100020.60
2017-09-06T08:17:26.872Z,100021.38
2017-09-06T08:19:55.966Z,100031.70
2017-09-06T08:22:25.037Z,100041.61
2017-09-06T08:24:54.085Z,100048.96
2017-09-06T08:27:23.127Z,100050.59
2017-09-06T08:29:52.215Z,100061.55
2017-09-06T08:32:21.311Z,100058.53
2017-09-06T08:34:50.345Z,100069.27
2017-09-06T08:37:19.401Z,100061.72
2017-09-06T08:39:49.223Z,100072.45
2017-09-06T08:42:18.289Z,100075.64
2017-09-06T08:44:47.443Z,100088.49
2017-09-06T08:47:16.549Z,100085.73
2017-09-06T08:49:45.584Z,100089.77
2017-09-06T08:52:15.399Z,100098.66
2017-09-06T08:54:45.248Z,100106.10
2017-09-06T08:57:14.321Z,100110.14
2017-09-06T08:59:43.381Z,100110.27
2017-09-06T09:02:12.464Z,100114.30
2017-09-06T09:04:41.545Z,100117.86
2017-09-06T09:07:10.791Z,100127.12
2017-09-06T09:09:39.858Z,100134.10
2017-09-06T09:12:09.507Z,100131.86
2017-09-06T09:14:38.569Z,100142.52
2017-09-06T09:17:08.205Z,100155.45
2017-09-06T09:19:37.276Z,100154.61
2017-09-06T09:22:06.342Z,100161.20
2017-09-06T09:24:35.397Z,100163.02
2017-09-06T09:27:04.477Z,100174.30
2017-09-06T09:29:33.535Z,100173.36
2017-09-06T09:32:02.573Z,100179.37
2017-09-06T09:34:32.403Z,100187.05
2017-09-06T09:37:01.493Z,100186.70
2017-09-06T09:39:30.535Z,100185.63
2017-09-06T09:41:59.621Z,100188.56
2017-09-06T09:44:28.674Z,100194.20
2017-09-06T09:46:57.754Z,100196.09
2017-09-06T09:49:26.834Z,100191.85
2017-09-06T09:51:55.937Z,100186.13
2017-09-06T09:54:25.032Z,100199.22
2017-09-06T09:56:54.949Z,100195.08
2017-09-06T09:59:24.013Z,100198.00
2017-09-06T10:01:53.068Z,100208.39
2017-09-06T10:04:22.927Z,100202.42
2017-09-06T10:06:51.999Z,100207.97
2017-09-06T10:09:21.086Z,100212.11
2017-09-06T10:11:50.156Z,100207.66
2017-09-06T10:14:20.241Z,100211.59
2017-09-06T10:16:49.277Z,100207.41
2017-09-06T10:19:18.357Z,100209.27
2017-09-06T10:21:47.445Z,100206.50
2017-09-06T10:24:16.496Z,100207.83
2017-09-06T10:26:45.560Z,100203.94
2017-09-06T10:29:14.655Z,100203.39
2017-09-06T10:31:44.527Z,100211.25
2017-09-06T10:34:13.574Z,100208.97
2017-09-06T10:36:42.649Z,100204.19
2017-09-06T10:39:11.729Z,100210.09
2017-09-06T10:41:41.592Z,100218.48
2017-09-06T10:44:10.637Z,100219.97
2017-09-06T10:46:40.485Z,100204.70
2017-09-06T10:49:09.659Z,100209.53
2017-09-06T10:51:38.713Z,100208.95
2017-09-06T10:54:07.807Z,100207.86
2017-09-06T10:56:36.892Z,100204.34
2017-09-06T10:59:05.995Z,100206.45
2017-09-06T11:01:35.056Z,100201.00
2017-09-06T11:04:04.171Z,100205.52
2017-09-06T11:06:33.241Z,100210.70
2017-09-06T11:09:02.287Z,100204.18
2017-09-06T11:11:32.148Z,100210.86
2017-09-06T11:14:01.637Z,100213.80
2017-09-06T11:16:32.398Z,100211.66
2017-09-06T11:19:01.441Z,100201.58
2017-09-06T11:21:30.507Z,100206.43
2017-09-06T11:23:59.757Z,100212.77
2017-09-06T11:26:28.837Z,100216.89
2017-09-06T11:28:58.064Z,100210.37
2017-09-06T11:31:27.148Z,100228.13
2017-09-06T11:33:56.217Z,100204.27
2017-09-06T11:36:25.341Z,100203.89
2017-09-06T11:38:54.380Z,100203.83
2017-09-06T11:41:23.419Z,100200.14
2017-09-06T11:43:52.528Z,100195.92
2017-09-06T11:46:21.616Z,100207.63
2017-09-06T11:48:50.706Z,100208.56
2017-09-06T11:51:19.765Z,100199.52
2017-09-06T11:53:48.863Z,100208.39
2017-09-06T11:56:17.937Z,100204.23
2017-09-06T11:58:46.990Z,100196.59
2017-09-06T12:01:16.381Z,100206.40
2017-09-06T12:03:45.463Z,100207.98
2017-09-06T12:06:14.521Z,100212.57
2017-09-06T12:08:43.635Z,100204.14
2017-09-06T12:11:12.700Z,100211.73
2017-09-06T12:13:41.763Z,100205.31
2017-09-06T12:16:10.823Z,100206.67
2017-09-06T12:18:39.965Z,100209.37
2017-09-06T12:21:09.156Z,100205.13
2017-09-06T12:23:38.231Z,100199.78
2017-09-06T12:26:07.607Z,100206.22
2017-09-06T12:28:36.787Z,100210.73
2017-09-06T12:31:06.148Z,100210.81
2017-09-06T12:33:35.240Z,100209.50
2017-09-06T12:36:04.308Z,100210.34
2017-09-06T12:38:33.399Z,100207.27
2017-09-06T12:41:02.466Z,100203.05
2017-09-06T12:43:31.516Z,100212.22
2017-09-06T12:46:00.578Z,100208.16
2017-09-06T12:48:29.656Z,100213.52
2017-09-06T12:50:58.695Z,100213.23
2017-09-06T12:53:27.758Z,100214.70
2017-09-06T12:55:56.823Z,100207.44
2017-09-06T12:58:25.898Z,100204.14
2017-09-06T13:00:54.965Z,100197.45
2017-09-06T13:03:24.121Z,100203.17
2017-09-06T13:05:53.202Z,100219.95
2017-09-06T13:08:22.263Z,100217.52
2017-09-06T13:10:51.340Z,100213.09
2017-09-06T13:13:20.404Z,100211.61
2017-09-06T13:15:49.456Z,100210.72
2017-09-06T13:18:18.551Z,100216.42
2017-09-06T13:20:47.632Z,100220.27
2017-09-06T13:23:16.699Z,100229.38
2017-09-06T13:25:46.315Z,100230.70
2017-09-06T13:28:15.659Z,100219.48
2017-09-06T13:30:44.730Z,100218.98
2017-09-06T13:33:14.608Z,100211.17
2017-09-06T13:35:44.755Z,100211.56
2017-09-06T13:38:13.841Z,100202.76
2017-09-06T13:40:42.884Z,100210.89
2017-09-06T13:43:12.875Z,100202.62
2017-09-06T13:45:41.934Z,100201.84
2017-09-06T13:48:11.037Z,100195.44
2017-09-06T13:50:40.132Z,100188.83
2017-09-06T13:53:09.209Z,100195.61
2017-09-06T13:55:38.397Z,100199.39
2017-09-06T13:58:07.463Z,100195.65
2017-09-06T14:00:36.869Z,100191.91
2017-09-06T14:03:06.309Z,100189.30
2017-09-06T14:05:35.635Z,100185.09
2017-09-06T14:08:04.979Z,100186.63
2017-09-06T14:10:34.033Z,100189.97
2017-09-06T14:13:03.347Z,100189.97
2017-09-06T14:15:33.910Z,100193.75
2017-09-06T14:18:06.040Z,100186.91
2017-09-06T14:20:35.140Z,100197.38
2017-09-06T14:23:04.230Z,100200.27
2017-09-06T14:25:33.300Z,100205.58
2017-09-06T14:28:02.339Z,100211.98
2017-09-06T14:30:31.464Z,100211.44
2017-09-06T14:33:01.285Z,100219.39
2017-09-06T14:35:30.370Z,100226.18
2017-09-06T14:37:59.438Z,100220.55
2017-09-06T14:40:28.818Z,100225.00
2017-09-06T14:42:57.959Z,100228.49
2017-09-06T14:45:27.778Z,100223.56
2017-09-06T14:47:57.190Z,100229.17
2017-09-06T14:50:26.292Z,100233.05
2017-09-06T14:52:55.373Z,100223.78
2017-09-06T14:55:24.462Z,100234.87
2017-09-06T14:57:53.757Z,100242.05
2017-09-06T15:00:22.837Z,100245.53
2017-09-06T15:02:51.881Z,100244.59
2017-09-06T15:05:20.976Z,100250.64
2017-09-06T15:07:50.004Z,100262.20
2017-09-06T15:10:19.130Z,100254.79
2017-09-06T15:12:48.188Z,100251.41
2017-09-06T15:15:17.276Z,100255.14
2017-09-06T15:17:46.378Z,100254.37
2017-09-06T15:20:15.432Z,100257.14
2017-09-06T15:22:46.482Z,100262.81
2017-09-06T15:25:15.544Z,100245.45
2017-09-06T15:27:44.947Z,100252.56
2017-09-06T15:30:14.320Z,100257.80
2017-09-06T15:32:43.388Z,100264.16
2017-09-06T15:35:12.451Z,100267.83
2017-09-06T15:37:41.600Z,100262.59
2017-09-06T15:40:10.684Z,100262.11
2017-09-06T15:42:39.768Z,100266.81
2017-09-06T15:45:08.836Z,100273.30
2017-09-06T15:47:37.909Z,100267.22
2017-09-06T15:50:06.989Z,100268.72
2017-09-06T15:52:36.051Z,100276.55
2017-09-06T15:55:05.153Z,100267.61
2017-09-06T15:57:34.225Z,100272.32
2017-09-06T16:00:03.276Z,100275.64
2017-09-06T16:02:32.800Z,100271.91
2017-09-06T16:05:01.851Z,100274.20
2017-09-06T16:07:30.955Z,100264.34
2017-09-06T16:10:00.262Z,100266.41
2017-09-06T16:12:29.354Z,100272.33
2017-09-06T16:14:58.446Z,100265.45
2017-09-06T16:17:28.254Z,100270.56
2017-09-06T16:19:57.324Z,100282.52
2017-09-06T16:22:26.377Z,100282.03
2017-09-06T16:24:55.420Z,100290.83
2017-09-06T16:27:24.525Z,100286.15
2017-09-06T16:29:53.583Z,100290.53
2017-09-06T16:32:22.656Z,100293.67
2017-09-06T16:34:51.704Z,100294.00
2017-09-06T16:37:20.806Z,100283.23
2017-09-06T16:39:49.847Z,100290.11
2017-09-06T16:42:18.924Z,100286.71
2017-09-06T16:44:48.004Z,100290.67
2017-09-06T16:47:17.117Z,100297.31
2017-09-06T16:49:46.212Z,100289.46
2017-09-06T16:52:15.313Z,100292.09
2017-09-06T16:54:44.406Z,100299.55
2017-09-06T16:57:13.647Z,100297.84
2017-09-06T16:59:43.513Z,100304.42
2017-09-06T17:02:12.568Z,100303.09
2017-09-06T17:04:41.697Z,100304.05
2017-09-06T17:07:10.776Z,100321.28
2017-09-06T17:09:42.744Z,100328.86
2017-09-06T17:12:12.086Z,100332.66
2017-09-06T17:14:41.131Z,100339.27
2017-09-06T17:17:11.014Z,100344.41
2017-09-06T17:19:40.076Z,100339.73
2017-09-06T17:22:09.160Z,100340.06
2017-09-06T17:24:38.238Z,100340.49
2017-09-06T17:27:08.453Z,100346.48
2017-09-06T17:29:37.586Z,100337.98
2017-09-06T17:32:06.739Z,100337.08
2017-09-06T17:34:35.811Z,100339.89
2017-09-06T17:37:05.623Z,100345.63
2017-09-06T17:39:34.672Z,100346.74
2017-09-06T17:42:04.239Z,100345.13
2017-09-06T17:44:34.053Z,100363.80
2017-09-06T17:47:03.160Z,100360.45
2017-09-06T17:49:32.220Z,100355.33
2017-09-06T17:52:01.305Z,100364.02
2017-09-06T17:54:30.346Z,100361.20
2017-09-06T17:56:59.436Z,100363.51
2017-09-06T17:59:28.480Z,100359.91
2017-09-06T18:01:57.528Z,100367.08
2017-09-06T18:04:26.609Z,100366.17
2017-09-06T18:06:56.252Z,100362.64
2017-09-06T18:09:25.665Z,100362.99
2017-09-06T18:11:55.325Z,100364.94
2017-09-06T18:14:24.439Z,100359.64
2017-09-06T18:16:53.517Z,100363.02
2017-09-06T18:19:22.651Z,100372.02
2017-09-06T18:21:51.761Z,100369.46
2017-09-06T18:24:21.625Z,100373.66
2017-09-06T18:26:50.724Z,100382.38
2017-09-06T18:29:19.920Z,100378.06
2017-09-06T18:31:49.022Z,100381.30
2017-09-06T18:34:18.089Z,100382.34
2017-09-06T18:36:47.951Z,100381.67
2017-09-06T18:39:17.032Z,100390.20
2017-09-06T18:41:46.092Z,100392.60
2017-09-06T18:44:15.284Z,100388.75
2017-09-06T18:46:44.320Z,100400.66
2017-09-06T18:49:13.405Z,100401.45
2017-09-06T18:51:42.442Z,100401.00
2017-09-06T18:54:11.534Z,100399.67
2017-09-06T18:56:40.604Z,100399.03
2017-09-06T18:59:09.662Z,100400.44
2017-09-06T19:01:38.766Z,100400.42
2017-09-06T19:04:09.276Z,100405.48
2017-09-06T19:06:38.365Z,100407.19
2017-09-06T19:09:07.539Z,100410.80
2017-09-06T19:11:36.586Z,100407.68
2017-09-06T19:14:05.719Z,100406.55
2017-09-06T19:16:34.754Z,100410.66
2017-09-06T19:19:03.901Z,100410.26
2017-09-06T19:21:32.934Z,100408.13
2017-09-06T19:24:01.985Z,100411.31
2017-09-06T19:26:31.067Z,100406.81
2017-09-06T19:29:00.184Z,100408.66
2017-09-06T19:31:29.254Z,100410.53
2017-09-06T19:33:58.296Z,100415.44
2017-09-06T19:36:27.401Z,100411.97
2017-09-06T19:38:56.457Z,100423.44
2017-09-06T19:41:25.517Z,100420.77
2017-09-06T19:43:54.597Z,100421.69
2017-09-06T19:46:23.670Z,100427.23
2017-09-06T19:48:52.751Z,100429.87
2017-09-06T19:51:21.815Z,100426.44
2017-09-06T19:53:51.661Z,100427.63
2017-09-06T19:56:20.732Z,100426.89
2017-09-06T19:58:49.785Z,100425.23
2017-09-06T20:01:18.832Z,100428.45
2017-09-06T20:03:48.091Z,100427.45
2017-09-06T20:06:17.383Z,100425.92
2017-09-06T20:08:46.421Z,100424.72
2017-09-06T20:11:15.504Z,100422.03
2017-09-06T20:13:44.572Z,100423.19
2017-09-06T20:16:14.246Z,100424.38
2017-09-06T20:18:43.307Z,100411.55
2017-09-06T20:21:12.378Z,100406.37
2017-09-06T20:23:42.217Z,100409.20
2017-09-06T20:26:11.327Z,100406.02
2017-09-06T20:28:40.381Z,100406.67
2017-09-06T20:31:09.702Z,100407.72
2017-09-06T20:33:38.779Z,100401.89
2017-09-06T20:36:07.848Z,100398.84
2017-09-06T20:38:36.959Z,100396.64
2017-09-06T20:41:06.819Z,100396.69
2017-09-06T20:43:35.893Z,100402.09
2017-09-06T20:46:04.990Z,100394.28
2017-09-06T20:48:34.048Z,100389.39
2017-09-06T20:51:03.152Z,100398.14
2017-09-06T20:53:32.221Z,100392.25
2017-09-06T20:56:01.303Z,100396.86
2017-09-06T20:58:30.370Z,100398.97
2017-09-06T21:00:59.431Z,100397.73
2017-09-06T21:03:28.587Z,100396.64
2017-09-06T21:05:57.644Z,100391.34
2017-09-06T21:08:26.731Z,100401.44
2017-09-06T21:10:55.931Z,100401.22
2017-09-06T21:13:25.004Z,100396.84
2017-09-06T21:15:54.055Z,100393.31
2017-09-06T21:18:23.142Z,100387.05
2017-09-06T21:20:52.219Z,100388.86
2017-09-06T21:23:21.307Z,100397.06
2017-09-06T21:25:50.351Z,100395.69
2017-09-06T21:28:19.403Z,100396.09
2017-09-06T21:30:48.486Z,100396.39
2017-09-06T21:33:17.682Z,100396.79
2017-09-06T21:35:46.782Z,100394.90
2017-09-06T21:38:15.800Z,100395.64
2017-09-06T21:40:44.884Z,100394.16
2017-09-06T21:43:13.937Z,100395.12
2017-09-06T21:45:43.005Z,100397.63
2017-09-06T21:48:12.100Z,100395.00
2017-09-06T21:50:41.171Z,100388.64
2017-09-06T21:53:10.384Z,100385.66
2017-09-06T21:55:39.423Z,100391.77
2017-09-06T21:58:08.551Z,100389.48
2017-09-06T22:00:37.620Z,100390.23
2017-09-06T22:03:06.741Z,100392.31
2017-09-06T22:05:35.841Z,100393.64
2017-09-06T22:08:05.220Z,100386.45
2017-09-06T22:10:34.275Z,100390.06
2017-09-06T22:13:03.343Z,100383.89
2017-09-06T22:15:32.434Z,100388.52
2017-09-06T22:18:02.261Z,100384.46
2017-09-06T22:20:31.361Z,100385.55
2017-09-06T22:23:00.696Z,100383.32
2017-09-06T22:25:29.761Z,100379.22
2017-09-06T22:27:58.807Z,100378.59
2017-09-06T22:30:27.885Z,100372.95
2017-09-06T22:32:56.939Z,100368.67
2017-09-06T22:35:26.029Z,100377.84
2017-09-06T22:37:55.099Z,100377.00
2017-09-06T22:40:24.137Z,100379.91
2017-09-06T22:42:53.214Z,100382.83
2017-09-06T22:45:22.276Z,100385.83
2017-09-06T22:47:51.337Z,100389.39
2017-09-06T22:50:20.445Z,100384.76
2017-09-06T22:52:49.525Z,100381.45
2017-09-06T22:55:18.588Z,100386.53
2017-09-06T22:57:47.668Z,100386.13
2017-09-06T23:00:16.728Z,100382.30
2017-09-06T23:02:45.860Z,100377.23
2017-09-06T23:05:15.075Z,100378.77
2017-09-06T23:07:44.180Z,100381.45
2017-09-06T23:10:13.252Z,100387.99
2017-09-06T23:12:43.099Z,100385.52
2017-09-06T23:15:12.207Z,100386.08
2017-09-06T23:17:41.280Z,100383.05
2017-09-06T23:20:10.348Z,100378.99
2017-09-06T23:22:39.400Z,100388.64
2017-09-06T23:25:08.713Z,100374.58
2017-09-06T23:27:37.776Z,100375.55
2017-09-06T23:30:06.849Z,100373.38
2017-09-06T23:32:35.905Z,100374.34
2017-09-06T23:35:05.002Z,100370.02
2017-09-06T23:37:34.066Z,100366.73
2017-09-06T23:40:03.108Z,100368.44
2017-09-06T23:42:32.162Z,100370.27
2017-09-06T23:45:01.246Z,100369.41
2017-09-06T23:47:30.288Z,100360.91
2017-09-06T23:49:59.356Z,100355.97
2017-09-06T23:52:28.415Z,100357.55
2017-09-06T23:54:57.465Z,100357.08
2017-09-06T23:57:26.510Z,100362.86
2017-09-06T23:59:55.589Z,100360.23
